createdAt,value
2022-09-18T00:01:59.618Z,96096.06
2022-09-18T00:07:20.606Z,96101.81
2022-09-18T00:12:41.320Z,96094.81
2022-09-18T00:18:02.259Z,96090.66
2022-09-18T00:23:23.037Z,96085.97
2022-09-18T00:28:45.180Z,96081.28
2022-09-18T00:34:08.959Z,96086.19
2022-09-18T00:39:29.599Z,96081.41
2022-09-18T00:44:50.207Z,96085.13
2022-09-18T00:50:16.515Z,96087.59
2022-09-18T00:55:38.241Z,96091.81
2022-09-18T01:01:01.357Z,96098.09
2022-09-18T01:06:46.077Z,96091.91
2022-09-18T01:12:43.450Z,96090.47
2022-09-18T01:18:13.469Z,96088.84
2022-09-18T01:23:49.402Z,96094.47
2022-09-18T01:29:25.564Z,96090.53
2022-09-18T01:35:14.166Z,96097.66
2022-09-18T01:40:54.121Z,96096.22
2022-09-18T01:46:19.666Z,96092.81
2022-09-18T01:52:12.148Z,96092.81
2022-09-18T01:58:01.568Z,96099.81
2022-09-18T02:03:25.176Z,96102.19
2022-09-18T02:08:52.258Z,96105.34
2022-09-18T02:14:26.178Z,96101.09
2022-09-18T02:20:21.836Z,96099.22
2022-09-18T02:25:54.718Z,96094.16
2022-09-18T02:31:16.811Z,96101.94
2022-09-18T02:37:09.200Z,96091.16
2022-09-18T02:43:01.584Z,96089.06
2022-09-18T02:48:52.137Z,96095.00
2022-09-18T02:54:25.410Z,96091.72
2022-09-18T02:59:54.311Z,96096.63
2022-09-18T03:05:15.019Z,96095.78
2022-09-18T03:10:44.851Z,96102.78
2022-09-18T03:16:05.634Z,96112.22
2022-09-18T03:21:27.424Z,96104.63
2022-09-18T03:26:48.515Z,96103.75
2022-09-18T03:32:09.449Z,96104.28
2022-09-18T03:37:37.852Z,96104.59
2022-09-18T03:43:01.659Z,96112.50
2022-09-18T03:48:22.781Z,96114.13
2022-09-18T03:53:46.497Z,96116.47
2022-09-18T03:59:33.938Z,96125.06
2022-09-18T04:05:15.457Z,96122.34
2022-09-18T04:10:55.049Z,96116.59
2022-09-18T04:16:19.053Z,96126.31
2022-09-18T04:21:40.023Z,96128.53
2022-09-18T04:27:00.711Z,96138.91
2022-09-18T04:32:21.724Z,96134.97
2022-09-18T04:37:44.801Z,96139.63
2022-09-18T04:43:07.273Z,96136.75
2022-09-18T04:48:27.863Z,96142.50
2022-09-18T04:53:50.482Z,96158.94
2022-09-18T04:59:11.896Z,96164.94
2022-09-18T05:04:37.134Z,96170.94
2022-09-18T05:10:10.714Z,96189.91
2022-09-18T05:15:33.357Z,96193.75
2022-09-18T05:21:02.150Z,96196.22
2022-09-18T05:26:24.626Z,96210.88
2022-09-18T05:31:45.068Z,96210.44
2022-09-18T05:37:10.659Z,96210.16
2022-09-18T05:42:33.852Z,96224.09
2022-09-18T05:47:57.275Z,96227.53
2022-09-18T05:53:20.885Z,96227.63
2022-09-18T05:58:54.987Z,96239.41
2022-09-18T06:04:16.038Z,96246.66
2022-09-18T06:09:42.888Z,96250.06
2022-09-18T06:15:03.837Z,96262.75
2022-09-18T06:20:24.985Z,96256.88
2022-09-18T06:25:45.960Z,96264.94
2022-09-18T06:31:07.509Z,96272.84
2022-09-18T06:36:57.432Z,96273.34
2022-09-18T06:42:23.404Z,96283.84
2022-09-18T06:48:10.539Z,96288.47
2022-09-18T06:53:32.133Z,96284.94
2022-09-18T06:58:56.850Z,96290.84
2022-09-18T07:04:17.628Z,96290.88
2022-09-18T07:09:39.243Z,96283.69
2022-09-18T07:15:08.639Z,96291.63
2022-09-18T07:20:30.060Z,96291.19
2022-09-18T07:25:51.765Z,96296.56
2022-09-18T07:31:13.120Z,96306.84
2022-09-18T07:36:33.987Z,96297.09
2022-09-18T07:41:54.666Z,96305.50
2022-09-18T07:47:16.228Z,96309.84
2022-09-18T07:52:37.328Z,96314.09
2022-09-18T07:58:00.251Z,96314.19
2022-09-18T08:03:43.282Z,96321.31
2022-09-18T08:09:04.001Z,96323.91
2022-09-18T08:14:49.365Z,96317.81
2022-09-18T08:20:35.712Z,96326.84
2022-09-18T08:26:13.233Z,96322.38
2022-09-18T08:31:34.093Z,96325.59
2022-09-18T08:36:57.576Z,96334.91
2022-09-18T08:42:54.256Z,96329.09
2022-09-18T08:48:29.019Z,96334.88
2022-09-18T08:53:57.365Z,96343.84
2022-09-18T08:59:51.164Z,96342.00
2022-09-18T09:05:19.003Z,96335.28
2022-09-18T09:11:02.463Z,96332.28
2022-09-18T09:16:42.717Z,96321.06
2022-09-18T09:22:08.031Z,96315.91
2022-09-18T09:27:41.712Z,96323.47
2022-09-18T09:33:37.625Z,96321.94
2022-09-18T09:39:29.429Z,96327.28
2022-09-18T09:45:24.567Z,96327.56
2022-09-18T09:51:41.059Z,96328.47
2022-09-18T09:57:19.934Z,96333.06
2022-09-18T10:02:57.045Z,96312.44
2022-09-18T10:08:35.813Z,96315.16
2022-09-18T10:14:20.998Z,96338.31
2022-09-18T10:19:43.942Z,96342.47
2022-09-18T10:25:17.731Z,96339.38
2022-09-18T10:30:53.836Z,96340.34
2022-09-18T10:36:24.283Z,96347.56
2022-09-18T10:41:48.461Z,96335.22
2022-09-18T10:47:12.501Z,96338.66
2022-09-18T10:52:38.893Z,96336.31
2022-09-18T10:58:14.516Z,96336.84
2022-09-18T11:03:47.593Z,96323.81
2022-09-18T11:09:20.108Z,96339.41
2022-09-18T11:14:44.952Z,96331.06
2022-09-18T11:20:26.852Z,96322.81
2022-09-18T11:26:18.190Z,96309.75
2022-09-18T11:31:46.477Z,96302.91
2022-09-18T11:37:22.048Z,96305.53
2022-09-18T11:42:44.970Z,96282.31
2022-09-18T11:48:36.314Z,96291.06
2022-09-18T11:54:07.077Z,96289.84
2022-09-18T11:59:34.596Z,96293.97
2022-09-18T12:05:21.287Z,96295.94
2022-09-18T12:10:49.937Z,96288.44
2022-09-18T12:16:13.911Z,96292.88
2022-09-18T12:21:47.276Z,96285.53
2022-09-18T12:27:29.832Z,96293.56
2022-09-18T12:33:22.958Z,96300.44
2022-09-18T12:39:18.062Z,96302.59
2022-09-18T12:45:24.991Z,96306.84
2022-09-18T12:50:59.556Z,96312.53
2022-09-18T12:56:38.371Z,96305.38
2022-09-18T13:02:18.528Z,96285.75
2022-09-18T13:07:48.629Z,96284.75
2022-09-18T13:13:17.125Z,96293.94
2022-09-18T13:18:46.893Z,96281.50
2022-09-18T13:24:14.501Z,96278.06
2022-09-18T13:29:53.704Z,96274.41
2022-09-18T13:35:14.276Z,96267.75
2022-09-18T13:40:39.297Z,96279.19
2022-09-18T13:46:05.930Z,96282.47
2022-09-18T13:51:31.585Z,96279.53
2022-09-18T13:57:10.516Z,96275.63
2022-09-18T14:02:42.538Z,96281.66
2022-09-18T14:08:22.384Z,96274.47
2022-09-18T14:13:51.458Z,96266.81
2022-09-18T14:19:32.271Z,96264.50
2022-09-18T14:24:53.314Z,96267.75
2022-09-18T14:30:31.007Z,96264.19
2022-09-18T14:35:57.488Z,96260.59
2022-09-18T14:41:33.053Z,96262.22
2022-09-18T14:46:59.118Z,96248.66
2022-09-18T14:52:27.361Z,96257.16
2022-09-18T14:57:59.151Z,96254.88
2022-09-18T15:03:24.769Z,96250.44
2022-09-18T15:08:48.596Z,96257.81
2022-09-18T15:14:40.565Z,96241.94
2022-09-18T15:20:16.235Z,96247.00
2022-09-18T15:25:39.646Z,96245.19
2022-09-18T15:31:04.729Z,96239.47
2022-09-18T15:36:28.968Z,96241.41
2022-09-18T15:41:50.205Z,96238.31
2022-09-18T15:47:34.976Z,96232.09
2022-09-18T15:52:57.864Z,96228.50
2022-09-18T15:58:42.339Z,96232.25
2022-09-18T16:04:08.733Z,96228.31
2022-09-18T16:09:42.065Z,96239.72
2022-09-18T16:15:23.995Z,96231.88
2022-09-18T16:20:57.798Z,96227.59
2022-09-18T16:26:27.920Z,96216.81
2022-09-18T16:31:49.222Z,96228.50
2022-09-18T16:37:12.302Z,96222.59
2022-09-18T16:42:32.938Z,96224.06
2022-09-18T16:47:57.785Z,96213.44
2022-09-18T16:53:20.706Z,96199.41
2022-09-18T16:58:42.238Z,96190.53
2022-09-18T17:04:04.683Z,96180.94
2022-09-18T17:09:25.816Z,96182.22
2022-09-18T17:14:48.275Z,96184.97
2022-09-18T17:20:12.991Z,96174.56
2022-09-18T17:25:34.290Z,96174.03
2022-09-18T17:30:55.105Z,96174.69
2022-09-18T17:36:18.221Z,96172.69
2022-09-18T17:41:39.156Z,96172.81
2022-09-18T17:47:01.476Z,96172.63
2022-09-18T17:52:22.261Z,96161.41
2022-09-18T17:57:43.075Z,96169.97
2022-09-18T18:03:04.300Z,96170.28
2022-09-18T18:08:27.355Z,96173.53
2022-09-18T18:13:49.893Z,96174.28
2022-09-18T18:19:14.323Z,96185.13
2022-09-18T18:24:34.976Z,96195.94
2022-09-18T18:29:55.725Z,96203.34
2022-09-18T18:35:16.497Z,96201.69
2022-09-18T18:40:38.885Z,96203.88
2022-09-18T18:46:02.042Z,96208.03
2022-09-18T18:51:22.626Z,96217.50
2022-09-18T18:56:43.427Z,96221.53
2022-09-18T19:02:04.779Z,96223.16
2022-09-18T19:07:25.512Z,96228.13
2022-09-18T19:12:46.339Z,96225.59
2022-09-18T19:18:07.322Z,96241.81
2022-09-18T19:23:28.285Z,96227.97
2022-09-18T19:28:58.112Z,96239.38
2022-09-18T19:34:20.826Z,96245.63
2022-09-18T19:39:41.530Z,96238.28
2022-09-18T19:45:04.657Z,96239.91
2022-09-18T19:50:29.384Z,96243.47
2022-09-18T19:55:50.328Z,96245.00
2022-09-18T20:01:12.813Z,96242.88
2022-09-18T20:06:33.656Z,96234.59
2022-09-18T20:11:54.142Z,96241.84
2022-09-18T20:17:14.951Z,96224.97
2022-09-18T20:22:39.871Z,96216.75
2022-09-18T20:28:02.164Z,96218.84
2022-09-18T20:33:22.906Z,96208.69
2022-09-18T20:38:43.642Z,96202.34
2022-09-18T20:44:04.954Z,96214.84
2022-09-18T20:49:26.037Z,96204.41
2022-09-18T20:54:46.711Z,96201.69
2022-09-18T21:00:10.043Z,96196.38
2022-09-18T21:05:30.907Z,96202.91
2022-09-18T21:10:51.562Z,96202.91
2022-09-18T21:16:12.265Z,96197.66
2022-09-18T21:21:34.319Z,96195.63
2022-09-18T21:26:54.973Z,96185.91
2022-09-18T21:32:15.545Z,96188.59
2022-09-18T21:37:36.194Z,96186.50
2022-09-18T21:42:56.757Z,96188.34
2022-09-18T21:48:17.969Z,96180.25
2022-09-18T21:53:40.198Z,96189.47
2022-09-18T21:59:00.735Z,96191.59
2022-09-18T22:04:28.052Z,96182.81
2022-09-18T22:09:50.797Z,96179.72
2022-09-18T22:15:11.690Z,96170.72
2022-09-18T22:20:35.592Z,96174.00
2022-09-18T22:26:00.055Z,96175.31
2022-09-18T22:31:24.688Z,96176.13
2022-09-18T22:36:46.377Z,96174.25
2022-09-18T22:42:06.890Z,96173.91
2022-09-18T22:47:27.495Z,96170.41
2022-09-18T22:52:48.756Z,96172.22
2022-09-18T22:58:09.295Z,96160.38
2022-09-18T23:03:29.903Z,96174.81
2022-09-18T23:08:51.468Z,96174.06
2022-09-18T23:14:18.620Z,96176.72
2022-09-18T23:19:39.331Z,96181.72
2022-09-18T23:25:00.134Z,96175.91
2022-09-18T23:30:21.250Z,96169.34
2022-09-18T23:35:41.946Z,96170.84
2022-09-18T23:41:04.860Z,96168.00
2022-09-18T23:46:25.915Z,96165.59
2022-09-18T23:51:47.182Z,96161.84
2022-09-18T23:57:07.897Z,96174.03
